Terminal Aerodrome Forecast
Issued by NWS

Home | Current Version | Previous Version | Text Only | Print | Product List | Glossary On
Versions: 1 2 3 4 5 6 7 8 9 10 11 12 13 14 15 16 17 18 19 20 21 22 23 24 25 26 27 28 29 30 31 32 33 34 35 36 37 38 39 40 41 42 43 44 45 46 47 48 49 50
000
FTUS45 KBOU 040840 AAB
TAFAPA
TAF AMD
KAPA 040840Z 0409/0506 13006KT P6SM -SHRA SCT035 OVC040
      TEMPO 0409/0411 3SM -RA BR SCT020 OVC030
     FM041100 11006KT 3SM -RA BR SCT012 OVC020
     FM041600 08007KT P6SM BKN018 OVC025
     FM042000 12008KT P6SM VCTS SCT030 BKN040CB
      TEMPO 0421/0501 3SM -TSRA BKN030CB
     FM050100 11008KT 5SM -RA BR BKN020 OVC040=

USA.gov is the U.S. government's official web portal to all federal, state and local government web resources and services.